createdAt,value
2019-03-06T00:00:47.445Z,0.00
2019-03-06T00:02:47.453Z,0.00
2019-03-06T00:03:47.785Z,0.00
2019-03-06T00:04:47.577Z,0.00
2019-03-06T00:05:47.546Z,0.00
2019-03-06T00:06:47.571Z,0.00
2019-03-06T00:07:47.658Z,0.00
2019-03-06T00:08:47.691Z,0.00
2019-03-06T00:09:47.669Z,0.00
2019-03-06T00:10:48.008Z,0.00
2019-03-06T00:12:47.759Z,0.00
2019-03-06T00:13:47.845Z,0.00
2019-03-06T00:14:47.833Z,0.00
2019-03-06T00:15:47.904Z,0.00
2019-03-06T00:18:47.995Z,0.00
2019-03-06T00:19:48.332Z,0.00
2019-03-06T00:20:48.008Z,0.00
2019-03-06T00:21:48.042Z,0.00
2019-03-06T00:22:48.072Z,0.00
2019-03-06T00:23:48.155Z,0.00
2019-03-06T00:25:48.211Z,0.00
2019-03-06T00:26:48.547Z,0.00
2019-03-06T00:27:48.281Z,0.00
2019-03-06T00:28:48.248Z,0.00
2019-03-06T00:29:48.286Z,0.00
2019-03-06T00:30:48.374Z,0.00
2019-03-06T00:31:48.389Z,0.00
2019-03-06T00:32:48.372Z,0.00
2019-03-06T00:33:48.720Z,0.00
2019-03-06T00:34:48.442Z,0.00
2019-03-06T00:35:48.463Z,0.00
2019-03-06T00:36:48.547Z,0.00
2019-03-06T00:37:48.522Z,0.00
2019-03-06T00:38:48.564Z,0.00
2019-03-06T00:39:48.645Z,0.00
2019-03-06T00:40:48.929Z,0.00
2019-03-06T00:41:48.707Z,0.00
2019-03-06T00:43:48.774Z,0.00
2019-03-06T00:44:48.740Z,0.00
2019-03-06T00:45:48.818Z,0.00
2019-03-06T00:46:48.800Z,0.00
2019-03-06T00:47:49.191Z,0.00
2019-03-06T00:48:48.865Z,0.00
2019-03-06T00:49:48.946Z,0.00
2019-03-06T00:50:48.928Z,0.00
2019-03-06T00:51:48.973Z,0.00
2019-03-06T00:52:48.992Z,0.00
2019-03-06T00:53:49.071Z,0.00
2019-03-06T00:54:49.430Z,0.00
2019-03-06T00:55:49.129Z,0.00
2019-03-06T00:56:49.111Z,0.00
2019-03-06T00:57:49.138Z,0.00
2019-03-06T00:58:49.224Z,0.00
2019-03-06T00:59:49.251Z,0.00
2019-03-06T01:00:49.240Z,0.00
2019-03-06T01:01:49.617Z,0.00
2019-03-06T01:02:49.349Z,0.00
2019-03-06T01:03:49.386Z,0.00
2019-03-06T01:04:49.376Z,0.00
2019-03-06T01:05:49.435Z,0.00
2019-03-06T01:06:49.419Z,0.00
2019-03-06T01:07:49.450Z,0.00
2019-03-06T01:08:49.844Z,0.00
2019-03-06T01:09:49.515Z,0.00
2019-03-06T01:10:49.592Z,0.00
2019-03-06T01:11:49.623Z,0.00
2019-03-06T01:12:49.653Z,0.00
2019-03-06T01:13:49.634Z,0.00
2019-03-06T01:14:49.672Z,0.00
2019-03-06T01:15:50.050Z,0.00
2019-03-06T01:16:49.773Z,0.00
2019-03-06T01:17:49.808Z,0.00
2019-03-06T01:19:49.872Z,0.00
2019-03-06T01:20:49.858Z,0.00
2019-03-06T01:21:49.933Z,0.00
2019-03-06T01:22:50.210Z,0.00
2019-03-06T01:24:50.033Z,0.00
2019-03-06T01:25:50.000Z,0.00
2019-03-06T01:26:50.086Z,0.00
2019-03-06T01:27:50.120Z,0.00
2019-03-06T01:28:50.094Z,0.00
2019-03-06T01:29:50.478Z,0.00
2019-03-06T01:30:50.211Z,0.00
2019-03-06T01:31:50.240Z,0.00
2019-03-06T01:32:50.375Z,0.00
2019-03-06T01:33:50.251Z,0.00
2019-03-06T01:35:50.359Z,0.00
2019-03-06T01:36:50.752Z,0.00
2019-03-06T01:37:50.376Z,0.00
2019-03-06T01:38:50.554Z,0.00
2019-03-06T01:39:50.491Z,0.00
2019-03-06T01:40:50.459Z,0.00
2019-03-06T01:41:50.502Z,0.00
2019-03-06T01:42:50.878Z,0.00
2019-03-06T01:43:50.607Z,0.00
2019-03-06T01:44:50.599Z,0.00
2019-03-06T01:45:50.721Z,0.00
2019-03-06T01:46:50.696Z,0.00
2019-03-06T01:47:50.746Z,0.00
2019-03-06T01:48:51.375Z,0.00
2019-03-06T01:49:50.792Z,0.00
2019-03-06T01:50:50.918Z,0.00
2019-03-06T01:51:50.813Z,0.00
2019-03-06T01:52:51.179Z,0.00
2019-03-06T01:53:50.918Z,0.00
2019-03-06T01:54:51.258Z,0.00
2019-03-06T01:55:50.982Z,0.00
2019-03-06T01:56:50.960Z,0.00
2019-03-06T01:57:50.993Z,0.00
2019-03-06T01:58:51.064Z,0.00
2019-03-06T01:59:51.198Z,0.00
2019-03-06T02:01:51.599Z,0.00
2019-03-06T02:02:51.293Z,0.00
2019-03-06T02:03:51.226Z,0.00
2019-03-06T02:04:51.248Z,0.00
2019-03-06T02:05:51.238Z,0.00
2019-03-06T02:06:51.413Z,0.00
2019-03-06T02:07:51.543Z,0.00
2019-03-06T02:08:51.982Z,0.00
2019-03-06T02:09:51.427Z,0.00
2019-03-06T02:10:51.388Z,0.00
2019-03-06T02:11:51.433Z,0.00
2019-03-06T02:12:51.502Z,0.00
2019-03-06T02:13:51.481Z,0.00
2019-03-06T02:14:51.515Z,0.00
2019-03-06T02:15:51.893Z,0.00
2019-03-06T02:16:51.618Z,0.00
2019-03-06T02:17:51.608Z,0.00
2019-03-06T02:18:51.635Z,0.00
2019-03-06T02:19:51.675Z,0.00
2019-03-06T02:20:51.748Z,0.00
2019-03-06T02:21:51.733Z,0.00
2019-03-06T02:22:52.129Z,0.00
2019-03-06T02:23:51.836Z,0.00
2019-03-06T02:24:51.885Z,0.00
2019-03-06T02:25:52.241Z,0.00
2019-03-06T02:26:51.880Z,0.00
2019-03-06T02:27:51.911Z,0.00
2019-03-06T02:28:52.002Z,0.00
2019-03-06T02:29:52.396Z,0.00
2019-03-06T02:30:52.006Z,0.00
2019-03-06T02:31:52.081Z,0.00
2019-03-06T02:32:52.059Z,0.00
2019-03-06T02:33:52.146Z,0.00
2019-03-06T02:34:52.125Z,0.00
2019-03-06T02:35:52.205Z,0.00
2019-03-06T02:36:52.544Z,0.00
2019-03-06T02:38:52.255Z,0.00
2019-03-06T02:39:52.334Z,0.00
2019-03-06T02:40:52.358Z,0.00
2019-03-06T02:41:52.377Z,0.00
2019-03-06T02:42:52.369Z,0.00
2019-03-06T02:43:52.752Z,0.00
2019-03-06T02:44:52.483Z,0.00
2019-03-06T02:45:52.467Z,0.00
2019-03-06T02:46:52.498Z,0.00
2019-03-06T02:47:52.578Z,0.00
2019-03-06T02:49:52.640Z,0.00
2019-03-06T02:50:52.976Z,0.00
2019-03-06T02:51:52.714Z,0.00
2019-03-06T02:52:52.724Z,0.00
2019-03-06T02:53:52.705Z,0.00
2019-03-06T02:54:52.743Z,0.00
2019-03-06T02:55:52.768Z,0.00
2019-03-06T02:56:52.803Z,0.00
2019-03-06T02:57:53.184Z,0.00
2019-03-06T02:58:52.861Z,0.00
2019-03-06T02:59:52.963Z,0.00
2019-03-06T03:00:52.924Z,0.00
2019-03-06T03:01:53.003Z,0.00
2019-03-06T03:02:52.989Z,0.00
2019-03-06T03:03:53.093Z,0.00
2019-03-06T03:04:53.408Z,0.00
2019-03-06T03:05:53.084Z,0.00
2019-03-06T03:06:53.116Z,0.00
2019-03-06T03:07:53.141Z,0.00
2019-03-06T03:08:53.215Z,0.00
2019-03-06T03:09:53.204Z,0.00
2019-03-06T03:10:53.229Z,0.00
2019-03-06T03:11:53.721Z,0.00
2019-03-06T03:12:53.297Z,0.00
2019-03-06T03:13:53.369Z,0.00
2019-03-06T03:14:53.350Z,0.00
2019-03-06T03:15:53.533Z,0.00
2019-03-06T03:16:53.467Z,0.00
2019-03-06T03:17:53.450Z,0.00
2019-03-06T03:18:53.825Z,0.00
2019-03-06T03:19:53.508Z,0.00
2019-03-06T03:20:53.591Z,0.00
2019-03-06T03:21:53.676Z,0.00
2019-03-06T03:22:53.601Z,0.00
2019-03-06T03:23:53.684Z,0.00
2019-03-06T03:24:53.974Z,0.00
2019-03-06T03:25:53.741Z,0.00
2019-03-06T03:26:53.770Z,0.00
2019-03-06T03:27:53.751Z,0.00
2019-03-06T03:28:53.835Z,0.00
2019-03-06T03:29:53.814Z,0.00
2019-03-06T03:30:54.198Z,0.00
2019-03-06T03:31:53.939Z,0.00
2019-03-06T03:32:54.066Z,0.00
2019-03-06T03:34:54.017Z,0.00
2019-03-06T03:35:54.146Z,0.00
2019-03-06T03:36:54.391Z,0.00
2019-03-06T03:37:54.057Z,0.00
2019-03-06T03:38:54.092Z,0.00
2019-03-06T03:39:54.170Z,0.00
2019-03-06T03:40:54.208Z,0.00
2019-03-06T03:41:54.236Z,0.00
2019-03-06T03:42:54.225Z,0.00
2019-03-06T03:43:54.610Z,0.00
2019-03-06T03:44:54.276Z,0.00
2019-03-06T03:45:54.371Z,0.00
2019-03-06T03:46:54.392Z,0.00
2019-03-06T03:48:54.443Z,0.00
2019-03-06T03:49:54.430Z,0.00
2019-03-06T03:50:54.812Z,0.00
2019-03-06T03:51:54.538Z,0.00
2019-03-06T03:52:54.520Z,0.00
2019-03-06T03:53:54.697Z,0.00
2019-03-06T03:54:54.577Z,0.00
2019-03-06T03:55:54.667Z,0.00
2019-03-06T03:56:54.638Z,0.00
2019-03-06T03:57:55.034Z,0.00
2019-03-06T03:58:54.705Z,0.00
2019-03-06T03:59:55.864Z,0.00
2019-03-06T04:00:54.823Z,0.00
2019-03-06T04:01:54.803Z,0.00
2019-03-06T04:02:54.875Z,0.00
2019-03-06T04:03:54.911Z,0.00
2019-03-06T04:04:55.246Z,0.00
2019-03-06T04:05:54.968Z,0.00
2019-03-06T04:07:55.031Z,0.00
2019-03-06T04:08:55.069Z,0.00
2019-03-06T04:09:55.104Z,0.00
2019-03-06T04:10:55.130Z,0.00
2019-03-06T04:11:55.453Z,0.00
2019-03-06T04:13:55.325Z,0.00
2019-03-06T04:14:55.194Z,0.00
2019-03-06T04:15:55.280Z,0.00
2019-03-06T04:16:55.317Z,0.00
2019-03-06T04:17:55.283Z,0.00
2019-03-06T04:18:55.676Z,0.00
2019-03-06T04:19:55.399Z,0.00
2019-03-06T04:20:55.450Z,0.00
2019-03-06T04:21:55.474Z,0.00
2019-03-06T04:22:55.499Z,0.00
2019-03-06T04:23:55.526Z,0.00
2019-03-06T04:24:55.556Z,0.00
2019-03-06T04:25:55.837Z,0.00
2019-03-06T04:26:55.591Z,0.00
2019-03-06T04:27:55.650Z,0.00
2019-03-06T04:28:55.671Z,0.00
2019-03-06T04:29:55.659Z,0.00
2019-03-06T04:30:55.738Z,0.00
2019-03-06T04:31:55.974Z,0.00
2019-03-06T04:32:56.109Z,0.00
2019-03-06T04:33:55.845Z,0.00
2019-03-06T04:34:55.810Z,0.00
2019-03-06T04:35:55.851Z,0.00
2019-03-06T04:36:55.915Z,0.00
2019-03-06T04:37:55.924Z,0.00
2019-03-06T04:38:55.936Z,0.00
2019-03-06T04:39:56.327Z,0.00
2019-03-06T04:40:56.038Z,0.00
2019-03-06T04:42:56.102Z,0.00
2019-03-06T04:43:56.083Z,0.00
2019-03-06T04:44:56.123Z,0.00
2019-03-06T04:45:56.199Z,0.00
2019-03-06T04:46:56.477Z,0.00
2019-03-06T04:47:56.210Z,0.00
2019-03-06T04:48:56.248Z,0.00
2019-03-06T04:49:56.317Z,0.00
2019-03-06T04:50:56.454Z,0.00
2019-03-06T04:51:56.380Z,0.00
2019-03-06T04:52:56.363Z,0.00
2019-03-06T04:53:56.751Z,0.00
2019-03-06T04:54:56.423Z,0.00
2019-03-06T04:55:56.505Z,0.00
2019-03-06T04:56:56.488Z,0.00
2019-03-06T04:57:56.567Z,0.00
2019-03-06T04:58:56.544Z,0.00
2019-03-06T04:59:56.625Z,0.00
2019-03-06T05:00:56.978Z,0.00
2019-03-06T05:02:56.713Z,0.00
2019-03-06T05:03:56.745Z,0.00
2019-03-06T05:04:56.727Z,0.00
2019-03-06T05:05:56.806Z,0.00
2019-03-06T05:06:56.859Z,0.00
2019-03-06T05:07:57.176Z,0.00
2019-03-06T05:08:56.853Z,0.00
2019-03-06T05:09:56.933Z,0.00
2019-03-06T05:10:56.965Z,0.00
2019-03-06T05:11:56.992Z,0.00
2019-03-06T05:12:57.019Z,0.00
2019-03-06T05:13:57.352Z,0.00
2019-03-06T05:14:57.039Z,0.00
2019-03-06T05:15:57.118Z,0.00
2019-03-06T05:16:57.143Z,0.00
2019-03-06T05:17:57.127Z,0.00
2019-03-06T05:18:57.304Z,0.00
2019-03-06T05:19:57.535Z,0.00
2019-03-06T05:20:57.218Z,0.00
2019-03-06T05:21:57.248Z,0.00
2019-03-06T05:22:57.281Z,0.00
2019-03-06T05:23:57.311Z,0.00
2019-03-06T05:24:57.344Z,0.00
2019-03-06T05:25:57.721Z,0.00
2019-03-06T05:26:57.563Z,0.00
2019-03-06T05:27:57.486Z,0.00
2019-03-06T05:28:57.516Z,0.00
2019-03-06T05:29:57.498Z,0.00
2019-03-06T05:30:57.546Z,0.00
2019-03-06T05:31:57.704Z,0.00
2019-03-06T05:32:57.887Z,0.00
2019-03-06T05:33:57.673Z,0.00
2019-03-06T05:34:57.711Z,0.00
2019-03-06T05:35:57.835Z,0.00
2019-03-06T05:36:57.723Z,0.00
2019-03-06T05:37:57.795Z,0.00
2019-03-06T05:38:57.776Z,0.00
2019-03-06T05:39:58.115Z,0.00
2019-03-06T05:40:57.832Z,0.00
2019-03-06T05:41:57.859Z,0.00
2019-03-06T05:42:57.940Z,0.00
2019-03-06T05:43:57.989Z,0.00
2019-03-06T05:44:58.107Z,0.00
2019-03-06T05:45:58.034Z,0.00
2019-03-06T05:46:58.366Z,0.00
2019-03-06T05:47:58.095Z,0.00
2019-03-06T05:48:58.241Z,0.00
2019-03-06T05:49:58.116Z,4.00
2019-03-06T05:50:58.134Z,4.00
2019-03-06T05:51:58.220Z,4.00
2019-03-06T05:52:58.246Z,4.00
2019-03-06T05:54:58.612Z,4.00
2019-03-06T05:55:58.292Z,8.00
2019-03-06T05:57:58.387Z,4.00
2019-03-06T05:58:58.390Z,8.00
2019-03-06T05:59:58.769Z,8.00
2019-03-06T06:00:58.496Z,8.00
2019-03-06T06:01:58.823Z,8.00
2019-03-06T06:02:58.661Z,8.00
2019-03-06T06:03:58.593Z,12.00
2019-03-06T06:04:58.621Z,12.00
2019-03-06T06:05:58.643Z,16.00
2019-03-06T06:06:58.682Z,16.00
2019-03-06T06:07:58.738Z,16.00
2019-03-06T06:08:59.035Z,20.00
2019-03-06T06:09:58.727Z,20.00
2019-03-06T06:10:58.800Z,24.00
2019-03-06T06:11:58.834Z,24.00
2019-03-06T06:12:58.818Z,32.00
2019-03-06T06:13:58.841Z,36.00
2019-03-06T06:14:58.878Z,44.00
2019-03-06T06:15:59.262Z,48.00
2019-03-06T06:16:58.987Z,48.00
2019-03-06T06:17:58.984Z,52.00
2019-03-06T06:18:59.047Z,56.00
2019-03-06T06:19:59.177Z,60.00
2019-03-06T06:20:59.059Z,64.00
2019-03-06T06:21:59.155Z,68.00
2019-03-06T06:22:59.479Z,72.00
2019-03-06T06:23:59.201Z,80.00
2019-03-06T06:24:59.244Z,84.00
2019-03-06T06:25:59.259Z,92.00
2019-03-06T06:26:59.239Z,96.00
2019-03-06T06:27:59.435Z,104.00
2019-03-06T06:28:59.456Z,112.00
2019-03-06T06:29:59.331Z,124.00
2019-03-06T06:30:59.360Z,132.00
2019-03-06T06:31:59.396Z,144.00
2019-03-06T06:32:59.426Z,156.00
2019-03-06T06:33:59.507Z,168.00
2019-03-06T06:34:59.540Z,184.00
2019-03-06T06:35:59.865Z,200.00
2019-03-06T06:36:59.601Z,212.00
2019-03-06T06:37:59.635Z,224.00
2019-03-06T06:38:59.662Z,240.00
2019-03-06T06:39:59.713Z,248.00
2019-03-06T06:40:59.724Z,260.00
2019-03-06T06:41:59.703Z,272.00
2019-03-06T06:42:59.786Z,280.00
2019-03-06T06:43:59.815Z,284.00
2019-03-06T06:44:59.796Z,296.00
2019-03-06T06:45:59.875Z,304.00
2019-03-06T06:46:59.994Z,312.00
2019-03-06T06:48:00.033Z,324.00
2019-03-06T06:48:59.914Z,336.00
2019-03-06T06:49:59.952Z,344.00
2019-03-06T06:51:01.836Z,356.00
2019-03-06T06:52:00.054Z,360.00
2019-03-06T06:53:00.091Z,368.00
2019-03-06T06:54:00.416Z,376.00
2019-03-06T06:55:00.432Z,384.00
2019-03-06T06:56:00.135Z,392.00
2019-03-06T06:57:00.222Z,404.00
2019-03-06T06:58:00.193Z,416.00
2019-03-06T06:59:00.219Z,420.00
2019-03-06T07:00:00.389Z,428.00
2019-03-06T07:01:00.442Z,436.00
2019-03-06T07:02:00.362Z,448.00
2019-03-06T07:03:00.433Z,452.00
2019-03-06T07:04:00.426Z,456.00
2019-03-06T07:05:00.413Z,460.00
2019-03-06T07:06:00.553Z,464.00
2019-03-06T07:07:00.840Z,468.00
2019-03-06T07:08:00.553Z,468.00
2019-03-06T07:09:00.586Z,468.00
2019-03-06T07:10:00.644Z,472.00
2019-03-06T07:11:00.603Z,480.00
2019-03-06T07:12:00.622Z,492.00
2019-03-06T07:13:00.707Z,500.00
2019-03-06T07:14:01.032Z,504.00
2019-03-06T07:15:00.724Z,508.00
2019-03-06T07:16:00.798Z,516.00
2019-03-06T07:17:00.775Z,528.00
2019-03-06T07:18:00.802Z,544.00
2019-03-06T07:19:00.889Z,560.00
2019-03-06T07:20:00.920Z,576.00
2019-03-06T07:21:01.248Z,592.00
2019-03-06T07:22:00.931Z,604.00
2019-03-06T07:23:01.010Z,608.00
2019-03-06T07:24:00.995Z,600.00
2019-03-06T07:25:01.036Z,588.00
2019-03-06T07:26:01.055Z,580.00
2019-03-06T07:27:01.088Z,572.00
2019-03-06T07:28:01.474Z,568.00
2019-03-06T07:29:01.433Z,564.00
2019-03-06T07:30:01.177Z,568.00
2019-03-06T07:31:01.257Z,576.00
2019-03-06T07:32:01.284Z,596.00
2019-03-06T07:33:01.321Z,616.00
2019-03-06T07:34:01.308Z,640.00
2019-03-06T07:35:01.686Z,660.00
2019-03-06T07:36:01.405Z,676.00
2019-03-06T07:37:01.441Z,696.00
2019-03-06T07:39:01.454Z,756.00
2019-03-06T07:40:01.481Z,796.00
2019-03-06T07:41:01.514Z,836.00
2019-03-06T07:42:01.597Z,884.00
2019-03-06T07:43:01.576Z,932.00
2019-03-06T07:44:01.656Z,980.00
2019-03-06T07:45:01.684Z,1024.00
2019-03-06T07:46:01.673Z,1056.00
2019-03-06T07:47:01.696Z,1088.00
2019-03-06T07:48:02.077Z,1112.00
2019-03-06T07:49:01.826Z,1136.00
2019-03-06T07:50:01.941Z,1152.00
2019-03-06T07:51:01.820Z,1156.00
2019-03-06T07:52:01.901Z,1152.00
2019-03-06T07:53:01.880Z,1140.00
2019-03-06T07:54:02.280Z,1120.00
2019-03-06T07:55:01.951Z,1092.00
2019-03-06T07:56:01.973Z,1068.00
2019-03-06T07:57:02.009Z,1044.00
2019-03-06T07:58:02.041Z,1036.00
2019-03-06T07:59:02.129Z,1040.00
2019-03-06T08:00:02.450Z,1052.00
2019-03-06T08:01:02.143Z,1064.00
2019-03-06T08:02:02.163Z,1076.00
2019-03-06T08:03:02.203Z,1084.00
2019-03-06T08:04:02.287Z,1092.00
2019-03-06T08:05:02.307Z,1104.00
2019-03-06T08:06:02.287Z,1128.00
2019-03-06T08:07:02.369Z,1156.00
2019-03-06T08:08:02.348Z,1184.00
2019-03-06T08:09:02.429Z,1220.00
2019-03-06T08:10:02.411Z,1256.00
2019-03-06T08:11:02.443Z,1288.00
2019-03-06T08:12:02.817Z,1316.00
2019-03-06T08:13:02.504Z,1344.00
2019-03-06T08:14:02.586Z,1376.00
2019-03-06T08:15:02.563Z,1400.00
2019-03-06T08:16:02.646Z,1432.00
2019-03-06T08:17:02.675Z,1464.00
2019-03-06T08:18:03.011Z,1488.00
2019-03-06T08:19:02.700Z,1508.00
2019-03-06T08:20:02.765Z,1516.00
2019-03-06T08:22:02.825Z,1524.00
2019-03-06T08:23:02.812Z,1524.00
2019-03-06T08:24:02.836Z,1528.00
2019-03-06T08:25:03.222Z,1528.00
2019-03-06T08:26:02.960Z,1536.00
2019-03-06T08:27:02.930Z,1548.00
2019-03-06T08:28:03.017Z,1568.00
2019-03-06T08:29:02.993Z,1588.00
2019-03-06T08:30:03.028Z,1596.00
2019-03-06T08:31:03.115Z,1588.00
2019-03-06T08:32:03.089Z,1580.00
2019-03-06T08:33:03.474Z,1572.00
2019-03-06T08:34:03.152Z,1556.00
2019-03-06T08:35:03.206Z,1548.00
2019-03-06T08:36:03.275Z,1544.00
2019-03-06T08:37:03.304Z,1540.00
2019-03-06T08:38:03.329Z,1552.00
2019-03-06T08:39:03.305Z,1588.00
2019-03-06T08:40:03.348Z,1624.00
2019-03-06T08:41:05.292Z,1672.00
2019-03-06T08:42:03.400Z,1720.00
2019-03-06T08:43:03.492Z,1756.00
2019-03-06T08:44:03.517Z,1796.00
2019-03-06T08:45:03.499Z,1828.00
2019-03-06T08:46:03.529Z,1864.00
2019-03-06T08:47:03.567Z,1892.00
2019-03-06T08:48:03.665Z,1884.00
2019-03-06T08:50:03.707Z,1884.00
2019-03-06T08:51:03.691Z,1896.00
2019-03-06T08:52:03.761Z,1892.00
2019-03-06T08:53:03.804Z,1884.00
2019-03-06T08:54:03.776Z,1884.00
2019-03-06T08:55:03.864Z,1904.00
2019-03-06T08:56:03.889Z,1884.00
2019-03-06T08:57:04.223Z,1868.00
2019-03-06T08:58:03.909Z,1864.00
2019-03-06T08:59:03.952Z,1876.00
2019-03-06T09:00:04.019Z,1884.00
2019-03-06T09:01:04.080Z,1928.00
2019-03-06T09:02:04.025Z,1980.00
2019-03-06T09:03:04.124Z,2020.00
2019-03-06T09:04:04.444Z,2048.00
2019-03-06T09:05:04.166Z,2080.00
2019-03-06T09:06:04.152Z,2124.00
2019-03-06T09:07:04.177Z,2196.00
2019-03-06T09:08:04.268Z,2244.00
2019-03-06T09:09:04.299Z,2252.00
2019-03-06T09:10:04.280Z,2244.00
2019-03-06T09:11:04.608Z,2240.00
2019-03-06T09:12:04.351Z,2232.00
2019-03-06T09:13:04.425Z,2228.00
2019-03-06T09:14:04.404Z,2224.00
2019-03-06T09:15:04.484Z,2224.00
2019-03-06T09:16:04.470Z,2232.00
2019-03-06T09:17:04.511Z,2248.00
2019-03-06T09:18:09.183Z,2272.00
2019-03-06T09:20:04.649Z,2208.00
2019-03-06T09:21:04.687Z,2192.00
2019-03-06T09:22:04.662Z,2144.00
2019-03-06T09:23:04.687Z,2120.00
2019-03-06T09:24:04.761Z,2076.00
2019-03-06T09:25:04.812Z,2028.00
2019-03-06T09:26:04.841Z,1984.00
2019-03-06T09:27:04.811Z,1980.00
2019-03-06T09:28:04.842Z,1984.00
2019-03-06T09:29:04.872Z,1984.00
2019-03-06T09:30:04.902Z,1980.00
2019-03-06T09:31:04.983Z,1968.00
2019-03-06T09:32:05.017Z,1956.00
2019-03-06T09:33:05.049Z,1936.00
2019-03-06T09:34:05.030Z,1916.00
2019-03-06T09:35:05.121Z,1900.00
2019-03-06T09:36:05.094Z,1916.00
2019-03-06T09:37:05.480Z,1944.00
2019-03-06T09:38:10.925Z,1948.00
2019-03-06T09:39:05.339Z,1956.00
2019-03-06T09:40:06.203Z,2032.00
2019-03-06T09:41:05.247Z,2176.00
2019-03-06T09:42:05.333Z,2236.00
2019-03-06T09:43:05.364Z,2212.00
2019-03-06T09:44:05.401Z,2188.00
2019-03-06T09:45:05.425Z,2284.00
2019-03-06T09:46:05.404Z,2368.00
2019-03-06T09:47:05.487Z,2476.00
2019-03-06T09:48:05.517Z,2596.00
2019-03-06T09:49:11.535Z,2728.00
2019-03-06T09:50:05.584Z,2672.00
2019-03-06T09:51:05.623Z,2648.00
2019-03-06T09:52:05.648Z,2600.00
2019-03-06T09:53:05.642Z,2604.00
2019-03-06T09:54:05.711Z,2588.00
2019-03-06T09:55:05.855Z,2532.00
2019-03-06T09:56:05.723Z,2444.00
2019-03-06T09:57:05.759Z,2296.00
2019-03-06T09:58:05.840Z,2228.00
2019-03-06T09:59:05.824Z,2228.00
2019-03-06T10:00:05.905Z,2292.00
2019-03-06T10:01:05.935Z,2416.00
2019-03-06T10:02:07.225Z,2576.00
2019-03-06T10:03:06.012Z,2664.00
2019-03-06T10:04:06.028Z,2708.00
2019-03-06T10:05:06.014Z,2780.00
2019-03-06T10:06:06.038Z,2908.00
2019-03-06T10:07:06.132Z,3036.00
2019-03-06T10:08:06.153Z,3108.00
2019-03-06T10:09:06.143Z,3096.00
2019-03-06T10:10:06.169Z,3052.00
2019-03-06T10:11:06.209Z,3016.00
2019-03-06T10:12:06.281Z,3032.00
2019-03-06T10:13:06.264Z,3092.00
2019-03-06T10:14:06.291Z,3148.00
2019-03-06T10:15:06.333Z,3160.00
2019-03-06T10:16:08.231Z,3188.00
2019-03-06T10:17:06.445Z,3208.00
2019-03-06T10:18:06.470Z,3260.00
2019-03-06T10:19:06.449Z,3300.00
2019-03-06T10:20:06.539Z,3340.00
2019-03-06T10:21:06.552Z,3336.00
2019-03-06T10:22:06.598Z,3284.00
2019-03-06T10:23:08.332Z,3200.00
2019-03-06T10:24:06.662Z,3116.00
2019-03-06T10:25:06.720Z,3064.00
2019-03-06T10:26:06.724Z,2992.00
2019-03-06T10:27:06.707Z,2920.00
2019-03-06T10:28:07.010Z,2832.00
2019-03-06T10:29:06.832Z,2740.00
2019-03-06T10:30:06.852Z,2604.00
2019-03-06T10:32:07.221Z,2304.00
2019-03-06T10:34:06.981Z,2100.00
2019-03-06T10:35:07.017Z,2056.00
2019-03-06T10:36:07.067Z,2052.00
2019-03-06T10:38:08.300Z,2080.00
2019-03-06T10:39:07.105Z,2072.00
2019-03-06T10:40:07.125Z,2060.00
2019-03-06T10:41:07.207Z,2048.00
2019-03-06T10:42:07.192Z,2048.00
2019-03-06T10:43:07.217Z,2048.00
2019-03-06T10:44:07.302Z,2048.00
2019-03-06T10:46:07.366Z,2104.00
2019-03-06T10:47:07.345Z,2148.00
2019-03-06T10:48:07.380Z,2200.00
2019-03-06T10:49:07.417Z,2316.00
2019-03-06T10:50:07.449Z,2444.00
2019-03-06T10:51:07.828Z,2524.00
2019-03-06T10:52:07.561Z,2600.00
2019-03-06T10:53:07.598Z,2684.00
2019-03-06T10:54:07.621Z,2776.00
2019-03-06T10:55:07.614Z,2868.00
2019-03-06T10:56:07.700Z,2900.00
2019-03-06T10:57:07.678Z,2880.00
2019-03-06T10:58:07.748Z,2836.00
2019-03-06T10:59:07.758Z,2768.00
2019-03-06T11:00:07.821Z,2696.00
2019-03-06T11:01:07.795Z,2624.00
2019-03-06T11:02:07.882Z,2552.00
2019-03-06T11:03:07.912Z,2508.00
2019-03-06T11:05:07.943Z,2412.00
2019-03-06T11:06:08.008Z,2372.00
2019-03-06T11:07:08.039Z,2344.00
2019-03-06T11:08:08.087Z,2368.00
2019-03-06T11:09:08.057Z,2440.00
2019-03-06T11:10:08.104Z,2488.00
2019-03-06T11:11:08.170Z,2512.00
2019-03-06T11:12:08.205Z,2504.00
2019-03-06T11:13:08.618Z,2436.00
2019-03-06T11:14:08.421Z,2364.00
2019-03-06T11:15:08.303Z,2296.00
2019-03-06T11:16:08.331Z,2208.00
2019-03-06T11:17:08.365Z,2072.00
2019-03-06T11:18:08.342Z,1944.00
2019-03-06T11:19:08.391Z,1892.00
2019-03-06T11:20:08.634Z,1896.00
2019-03-06T11:21:08.494Z,1924.00
2019-03-06T11:22:08.479Z,1948.00
2019-03-06T11:23:08.561Z,2008.00
2019-03-06T11:24:08.590Z,2076.00
2019-03-06T11:25:08.626Z,2188.00
2019-03-06T11:26:08.954Z,2292.00
2019-03-06T11:27:08.638Z,2384.00
2019-03-06T11:28:09.400Z,2452.00
2019-03-06T11:29:08.765Z,2500.00
2019-03-06T11:30:08.738Z,2544.00
2019-03-06T11:31:08.770Z,2592.00
2019-03-06T11:32:08.850Z,2648.00
2019-03-06T11:33:08.831Z,2744.00
2019-03-06T11:34:08.906Z,2872.00
2019-03-06T11:35:08.974Z,2940.00
2019-03-06T11:36:08.975Z,2980.00
2019-03-06T11:37:09.018Z,3048.00
2019-03-06T11:38:08.990Z,3124.00
2019-03-06T11:39:09.033Z,3148.00
2019-03-06T11:40:09.123Z,3080.00
2019-03-06T11:41:09.388Z,2968.00
2019-03-06T11:42:09.165Z,2848.00
2019-03-06T11:43:09.158Z,2768.00
2019-03-06T11:45:09.277Z,2856.00
2019-03-06T11:47:09.336Z,2764.00
2019-03-06T11:48:09.366Z,2604.00
2019-03-06T11:49:09.344Z,2392.00
2019-03-06T11:50:09.425Z,2132.00
2019-03-06T11:51:09.465Z,1996.00
2019-03-06T11:52:09.497Z,1900.00
2019-03-06T11:53:09.528Z,1852.00
2019-03-06T11:54:09.553Z,1808.00
2019-03-06T11:55:09.727Z,1740.00
2019-03-06T11:56:09.619Z,1664.00
2019-03-06T11:57:09.658Z,1616.00
2019-03-06T11:58:09.688Z,1592.00
2019-03-06T11:59:09.667Z,1584.00
2019-03-06T12:00:09.995Z,1564.00
2019-03-06T12:01:09.816Z,1552.00
2019-03-06T12:02:09.786Z,1532.00
2019-03-06T12:03:09.801Z,1556.00
2019-03-06T12:04:09.875Z,1660.00
2019-03-06T12:05:09.866Z,1848.00
2019-03-06T12:06:09.946Z,2128.00
2019-03-06T12:07:09.971Z,2524.00
2019-03-06T12:08:10.079Z,2976.00
2019-03-06T12:09:10.047Z,3456.00
2019-03-06T12:10:10.324Z,3812.00
2019-03-06T12:11:10.058Z,4144.00
2019-03-06T12:12:10.151Z,4216.00
2019-03-06T12:13:10.171Z,3964.00
2019-03-06T12:14:10.158Z,3632.00
2019-03-06T12:15:10.239Z,3392.00
2019-03-06T12:16:10.277Z,3360.00
2019-03-06T12:17:10.251Z,3304.00
2019-03-06T12:18:10.626Z,3136.00
2019-03-06T12:19:10.431Z,2960.00
2019-03-06T12:20:10.349Z,2740.00
2019-03-06T12:21:10.393Z,2468.00
2019-03-06T12:22:10.406Z,2224.00
2019-03-06T12:23:10.445Z,2048.00
2019-03-06T12:24:10.530Z,2056.00
2019-03-06T12:25:10.882Z,2144.00
2019-03-06T12:26:10.540Z,2212.00
2019-03-06T12:27:10.623Z,2260.00
2019-03-06T12:28:10.600Z,2324.00
2019-03-06T12:29:10.643Z,2344.00
2019-03-06T12:30:10.667Z,2284.00
2019-03-06T12:31:10.747Z,2224.00
2019-03-06T12:32:11.084Z,2132.00
2019-03-06T12:33:10.817Z,1972.00
2019-03-06T12:34:10.802Z,1836.00
2019-03-06T12:37:10.947Z,1724.00
2019-03-06T12:38:10.987Z,1696.00
2019-03-06T12:39:11.537Z,1688.00
2019-03-06T12:40:12.995Z,1664.00
2019-03-06T12:41:12.687Z,1624.00
2019-03-06T12:42:14.358Z,1604.00
2019-03-06T12:43:11.094Z,1584.00
2019-03-06T12:44:11.275Z,1516.00
2019-03-06T12:45:11.500Z,1456.00
2019-03-06T12:46:11.238Z,1460.00
2019-03-06T12:47:11.223Z,1468.00
2019-03-06T12:48:11.299Z,1516.00
2019-03-06T12:49:11.355Z,1516.00
2019-03-06T12:50:11.673Z,1448.00
2019-03-06T12:51:11.357Z,1380.00
2019-03-06T12:52:11.388Z,1308.00
2019-03-06T12:53:12.883Z,1260.00
2019-03-06T12:54:11.447Z,1328.00
2019-03-06T12:55:11.534Z,1388.00
2019-03-06T12:56:11.519Z,1368.00
2019-03-06T12:57:11.551Z,1288.00
2019-03-06T12:58:11.628Z,1276.00
2019-03-06T12:59:11.661Z,1336.00
2019-03-06T13:00:11.687Z,1320.00
2019-03-06T13:01:11.721Z,1268.00
2019-03-06T13:02:11.708Z,1264.00
2019-03-06T13:03:11.762Z,1252.00
2019-03-06T13:04:11.830Z,1252.00
2019-03-06T13:05:11.854Z,1296.00
2019-03-06T13:06:11.839Z,1360.00
2019-03-06T13:07:11.867Z,1412.00
2019-03-06T13:08:19.466Z,1500.00
2019-03-06T13:09:11.982Z,1628.00
2019-03-06T13:12:12.090Z,1628.00
2019-03-06T13:13:12.123Z,1676.00
2019-03-06T13:14:12.093Z,1824.00
2019-03-06T13:15:12.141Z,1864.00
2019-03-06T13:16:12.406Z,1808.00